createdAt,value
2023-02-19T00:04:00.573Z,100.0
2023-02-19T00:09:00.560Z,100.0
2023-02-19T00:14:00.576Z,100.0
2023-02-19T00:19:00.570Z,100.0
2023-02-19T00:24:00.577Z,100.0
2023-02-19T00:29:00.576Z,100.0
2023-02-19T00:34:00.582Z,100.0
2023-02-19T00:39:00.585Z,100.0
2023-02-19T00:44:00.623Z,100.0
2023-02-19T00:49:00.583Z,100.0
2023-02-19T00:54:00.606Z,100.0
2023-02-19T00:59:00.598Z,100.0
2023-02-19T01:04:00.608Z,100.0
2023-02-19T01:09:00.595Z,100.0
2023-02-19T01:14:00.616Z,100.0
2023-02-19T01:19:00.608Z,100.0
2023-02-19T01:24:00.624Z,100.0
2023-02-19T01:29:00.630Z,100.0
2023-02-19T01:34:00.616Z,100.0
2023-02-19T01:39:00.612Z,100.0
2023-02-19T01:44:00.673Z,100.0
2023-02-19T01:49:00.630Z,100.0
2023-02-19T01:54:00.629Z,100.0
2023-02-19T01:59:00.629Z,100.0
2023-02-19T02:04:00.641Z,100.0
2023-02-19T02:09:00.646Z,100.0
2023-02-19T02:14:00.664Z,100.0
2023-02-19T02:19:00.645Z,100.0
2023-02-19T02:24:00.643Z,100.0
2023-02-19T02:29:00.646Z,100.0
2023-02-19T02:34:00.669Z,100.0
2023-02-19T02:39:00.693Z,100.0
2023-02-19T02:44:00.732Z,100.0
2023-02-19T02:49:00.660Z,100.0
2023-02-19T02:54:00.666Z,100.0
2023-02-19T02:59:00.670Z,100.0
2023-02-19T03:04:00.669Z,100.0
2023-02-19T03:09:00.668Z,100.0
2023-02-19T03:14:00.686Z,100.0
2023-02-19T03:19:00.690Z,100.0
2023-02-19T03:24:00.674Z,100.0
2023-02-19T03:29:00.679Z,100.0
2023-02-19T03:34:00.690Z,100.0
2023-02-19T03:39:00.682Z,100.0
2023-02-19T03:44:00.796Z,100.0
2023-02-19T03:49:00.685Z,100.0
2023-02-19T03:54:00.693Z,100.0
2023-02-19T03:59:00.695Z,100.0
2023-02-19T04:04:00.709Z,100.0
2023-02-19T04:09:00.711Z,100.0
2023-02-19T04:14:00.727Z,100.0
2023-02-19T04:19:00.708Z,100.0
2023-02-19T04:24:00.713Z,100.0
2023-02-19T04:29:00.717Z,100.0
2023-02-19T04:34:00.727Z,100.0
2023-02-19T04:39:00.719Z,100.0
2023-02-19T04:44:00.789Z,100.0
2023-02-19T04:49:00.729Z,100.0
2023-02-19T04:54:00.723Z,100.0
2023-02-19T04:59:00.726Z,100.0
2023-02-19T05:04:00.854Z,100.0
2023-02-19T05:09:00.726Z,100.0
2023-02-19T05:14:00.801Z,100.0
2023-02-19T05:19:00.736Z,100.0
2023-02-19T05:24:00.741Z,100.0
2023-02-19T05:29:00.758Z,100.0
2023-02-19T05:34:00.749Z,100.0
2023-02-19T05:39:00.769Z,100.0
2023-02-19T05:44:00.821Z,100.0
2023-02-19T05:49:00.749Z,100.0
2023-02-19T05:54:00.767Z,100.0
2023-02-19T05:59:00.776Z,100.0
2023-02-19T06:04:00.831Z,100.0
2023-02-19T06:09:00.773Z,100.0
2023-02-19T06:14:00.841Z,100.0
2023-02-19T06:19:00.776Z,100.0
2023-02-19T06:24:00.774Z,100.0
2023-02-19T06:29:00.780Z,100.0
2023-02-19T06:34:00.803Z,100.0
2023-02-19T06:39:00.789Z,100.0
2023-02-19T06:44:00.810Z,100.0
2023-02-19T06:49:00.804Z,100.0
2023-02-19T06:54:00.804Z,100.0
2023-02-19T06:59:00.805Z,100.0
2023-02-19T07:04:00.866Z,100.0
2023-02-19T07:09:00.822Z,100.0
2023-02-19T07:14:00.931Z,100.0
2023-02-19T07:19:00.868Z,100.0
2023-02-19T07:24:00.815Z,100.0
2023-02-19T07:29:00.814Z,100.0
2023-02-19T07:34:00.828Z,100.0
2023-02-19T07:39:00.840Z,100.0
2023-02-19T07:44:00.894Z,100.0
2023-02-19T07:49:00.830Z,100.0
2023-02-19T07:54:00.835Z,100.0
2023-02-19T07:59:00.841Z,100.0
2023-02-19T08:04:00.858Z,100.0
2023-02-19T08:09:00.844Z,100.0
2023-02-19T08:14:00.865Z,100.0
2023-02-19T08:19:00.853Z,100.0
2023-02-19T08:24:00.856Z,100.0
2023-02-19T08:29:00.896Z,100.0
2023-02-19T08:34:00.874Z,100.0
2023-02-19T08:39:00.862Z,100.0
2023-02-19T08:44:00.924Z,100.0
2023-02-19T08:49:00.860Z,100.0
2023-02-19T08:54:00.865Z,100.0
2023-02-19T08:59:00.866Z,100.0
2023-02-19T09:04:00.913Z,100.0
2023-02-19T09:09:00.872Z,100.0
2023-02-19T09:14:00.892Z,100.0
2023-02-19T09:19:00.880Z,100.0
2023-02-19T09:24:00.894Z,100.0
2023-02-19T09:29:00.888Z,100.0
2023-02-19T09:34:00.910Z,100.0
2023-02-19T09:39:00.892Z,100.0
2023-02-19T09:44:00.909Z,100.0
2023-02-19T09:49:00.906Z,100.0
2023-02-19T09:54:00.911Z,100.0
2023-02-19T09:59:00.912Z,100.0
2023-02-19T10:04:00.914Z,100.0
2023-02-19T10:09:00.921Z,100.0
2023-02-19T10:14:00.990Z,100.0
2023-02-19T10:19:00.914Z,100.0
2023-02-19T10:24:00.910Z,100.0
2023-02-19T10:29:00.913Z,100.0
2023-02-19T10:34:00.932Z,100.0
2023-02-19T10:39:00.975Z,100.0
2023-02-19T10:44:00.999Z,100.0
2023-02-19T10:49:00.938Z,100.0
2023-02-19T10:54:00.932Z,100.0
2023-02-19T10:59:00.935Z,100.0
2023-02-19T11:04:00.951Z,100.0
2023-02-19T11:09:00.949Z,100.0
2023-02-19T11:14:00.954Z,100.0
2023-02-19T11:19:00.948Z,100.0
2023-02-19T11:24:00.939Z,100.0
2023-02-19T11:29:00.966Z,100.0
2023-02-19T11:34:00.969Z,100.0
2023-02-19T11:39:00.975Z,100.0
2023-02-19T11:44:01.042Z,100.0
2023-02-19T11:49:00.987Z,100.0
2023-02-19T11:54:00.977Z,100.0
2023-02-19T11:59:01.273Z,100.0
2023-02-19T12:04:00.989Z,100.0
2023-02-19T12:09:00.974Z,100.0
2023-02-19T12:14:01.053Z,100.0
2023-02-19T12:19:01.002Z,100.0
2023-02-19T12:24:00.983Z,100.0
2023-02-19T12:29:00.993Z,100.0
2023-02-19T12:34:00.995Z,100.0
2023-02-19T12:39:00.989Z,100.0
2023-02-19T12:44:01.020Z,100.0
2023-02-19T12:49:01.001Z,100.0
2023-02-19T12:54:00.998Z,100.0
2023-02-19T12:59:01.008Z,100.0
2023-02-19T13:04:01.029Z,100.0
2023-02-19T13:09:06.776Z,100.0
2023-02-19T13:14:01.042Z,100.0
2023-02-19T13:19:01.025Z,100.0
2023-02-19T13:24:01.019Z,100.0
2023-02-19T13:29:01.023Z,100.0
2023-02-19T13:34:01.036Z,100.0
2023-02-19T13:39:01.032Z,100.0
2023-02-19T13:44:01.120Z,100.0
2023-02-19T13:49:01.042Z,99.9
2023-02-19T13:54:01.075Z,100.0
2023-02-19T13:59:01.037Z,100.0
2023-02-19T14:04:01.052Z,99.9
2023-02-19T14:09:01.047Z,99.9
2023-02-19T14:14:01.092Z,98.8
2023-02-19T14:19:01.055Z,98.3
2023-02-19T14:24:01.052Z,98.2
2023-02-19T14:29:01.058Z,98.0
2023-02-19T14:34:01.072Z,97.5
2023-02-19T14:39:01.077Z,98.0
2023-02-19T14:44:01.093Z,97.6
2023-02-19T14:49:01.062Z,95.3
2023-02-19T14:54:01.073Z,97.3
2023-02-19T14:59:01.078Z,96.6
2023-02-19T15:04:01.085Z,96.1
2023-02-19T15:09:01.080Z,95.3
2023-02-19T15:14:01.092Z,96.5
2023-02-19T15:19:01.105Z,96.9
2023-02-19T15:24:01.087Z,97.4
2023-02-19T15:29:01.135Z,97.2
2023-02-19T15:34:01.102Z,97.1
2023-02-19T15:39:01.098Z,96.2
2023-02-19T15:44:01.121Z,96.1
2023-02-19T15:49:01.121Z,95.6
2023-02-19T15:54:01.115Z,95.7
2023-02-19T15:59:01.115Z,95.8
2023-02-19T16:04:01.142Z,96.4
2023-02-19T16:09:01.115Z,97.0
2023-02-19T16:14:01.138Z,97.3
2023-02-19T16:19:01.131Z,97.4
2023-02-19T16:24:01.133Z,97.6
2023-02-19T16:29:01.131Z,97.7
2023-02-19T16:34:01.143Z,97.7
2023-02-19T16:39:01.142Z,97.9
2023-02-19T16:44:01.156Z,98.1
2023-02-19T16:49:01.141Z,98.3
2023-02-19T16:54:01.150Z,98.5
2023-02-19T16:59:01.152Z,98.3
2023-02-19T17:04:01.222Z,98.2
2023-02-19T17:09:01.151Z,97.7
2023-02-19T17:14:01.171Z,97.3
2023-02-19T17:19:01.156Z,96.8
2023-02-19T17:24:01.156Z,97.0
2023-02-19T17:29:01.157Z,97.3
2023-02-19T17:34:01.174Z,97.1
2023-02-19T17:39:01.170Z,97.0
2023-02-19T17:44:01.204Z,97.1
2023-02-19T17:49:01.182Z,97.6
2023-02-19T17:54:01.176Z,97.8
2023-02-19T17:59:01.178Z,97.8
2023-02-19T18:04:01.250Z,98.0
2023-02-19T18:09:01.187Z,98.1
2023-02-19T18:14:01.253Z,98.1
2023-02-19T18:19:01.195Z,98.3
2023-02-19T18:24:01.194Z,98.4
2023-02-19T18:29:01.198Z,98.6
2023-02-19T18:34:01.208Z,98.8
2023-02-19T18:39:01.220Z,98.8
2023-02-19T18:44:01.225Z,98.7
2023-02-19T18:49:01.212Z,98.4
2023-02-19T18:54:01.213Z,98.6
2023-02-19T18:59:01.226Z,98.7
2023-02-19T19:04:01.252Z,98.9
2023-02-19T19:09:01.219Z,99.0
2023-02-19T19:14:01.239Z,98.9
2023-02-19T19:19:01.233Z,99.2
2023-02-19T19:24:01.233Z,99.5
2023-02-19T19:29:01.235Z,99.6
2023-02-19T19:34:01.254Z,99.6
2023-02-19T19:39:01.241Z,99.5
2023-02-19T19:44:01.259Z,99.5
2023-02-19T19:49:01.247Z,99.1
2023-02-19T19:54:01.244Z,99.2
2023-02-19T19:59:01.251Z,99.3
2023-02-19T20:04:01.260Z,99.6
2023-02-19T20:09:01.267Z,99.7
2023-02-19T20:14:01.279Z,99.9
2023-02-19T20:19:01.272Z,100.0
2023-02-19T20:24:01.262Z,100.0
2023-02-19T20:29:01.262Z,100.0
2023-02-19T20:34:01.287Z,100.0
2023-02-19T20:39:01.287Z,100.0
2023-02-19T20:44:01.349Z,100.0
2023-02-19T20:49:01.285Z,100.0
2023-02-19T20:54:01.280Z,100.0
2023-02-19T20:59:01.281Z,100.0
2023-02-19T21:04:01.286Z,100.0
2023-02-19T21:09:01.287Z,100.0
2023-02-19T21:14:01.316Z,100.0
2023-02-19T21:19:01.295Z,100.0
2023-02-19T21:24:01.295Z,100.0
2023-02-19T21:29:01.295Z,100.0
2023-02-19T21:34:01.311Z,100.0
2023-02-19T21:39:01.299Z,100.0
2023-02-19T21:44:01.354Z,100.0
2023-02-19T21:49:01.307Z,100.0
2023-02-19T21:54:01.318Z,100.0
2023-02-19T21:59:01.312Z,100.0
2023-02-19T22:04:01.324Z,100.0
2023-02-19T22:09:01.320Z,100.0
2023-02-19T22:14:01.335Z,100.0
2023-02-19T22:19:01.318Z,100.0
2023-02-19T22:24:01.325Z,100.0
2023-02-19T22:29:01.347Z,100.0
2023-02-19T22:34:01.335Z,100.0
2023-02-19T22:39:01.340Z,100.0
2023-02-19T22:44:01.407Z,100.0
2023-02-19T22:49:01.341Z,100.0
2023-02-19T22:54:01.347Z,100.0
2023-02-19T22:59:01.337Z,100.0
2023-02-19T23:04:01.473Z,100.0
2023-02-19T23:09:01.353Z,100.0
2023-02-19T23:14:01.433Z,100.0
2023-02-19T23:19:01.359Z,100.0
2023-02-19T23:24:01.364Z,100.0
2023-02-19T23:29:01.370Z,100.0
2023-02-19T23:34:01.375Z,100.0
2023-02-19T23:39:01.378Z,100.0
2023-02-19T23:44:01.387Z,100.0
2023-02-19T23:49:01.382Z,100.0
2023-02-19T23:54:01.377Z,100.0
2023-02-19T23:59:01.389Z,100.0
